Terminal Aerodrome Forecast
Issued by NWS

Home | Current Version | Previous Version | Graphics & Text | Print | Product List | Glossary Off
Versions: 1 2 3 4 5 6 7 8 9 10 11 12 13 14

565
FTUS43 KTOP 192320
TAFMHK
TAF
KMHK 192320Z 2000/2024 18006KT P6SM SCT250
     FM200500 19007KT P6SM SCT250 WS010/20040KT
     FM201400 18012KT P6SM SCT250
     FM201800 19019G28KT P6SM SCT200=

USA.gov is the U.S. government's official web portal to all federal, state and local government web resources and services.